createdAt,value
2023-03-17T00:00:06.430Z,1007.20
2023-03-17T00:01:06.419Z,1007.20
2023-03-17T00:02:06.396Z,1007.25
2023-03-17T00:03:06.339Z,1007.28
2023-03-17T00:04:06.405Z,1007.31
2023-03-17T00:05:06.341Z,1007.27
2023-03-17T00:06:06.310Z,1007.24
2023-03-17T00:07:06.294Z,1007.23
2023-03-17T00:08:06.289Z,1007.19
2023-03-17T00:09:06.335Z,1007.20
2023-03-17T00:10:06.261Z,1007.24
2023-03-17T00:11:06.235Z,1007.27
2023-03-17T00:12:06.249Z,1007.23
2023-03-17T00:13:06.238Z,1007.26
2023-03-17T00:14:06.220Z,1007.31
2023-03-17T00:15:06.222Z,1007.27
2023-03-17T00:16:06.233Z,1007.27
2023-03-17T00:17:06.203Z,1007.36
2023-03-17T00:18:06.146Z,1007.28
2023-03-17T00:19:06.172Z,1007.40
2023-03-17T00:20:06.184Z,1007.45
2023-03-17T00:21:06.148Z,1007.37
2023-03-17T00:22:06.146Z,1007.32
2023-03-17T00:23:06.114Z,1007.43
2023-03-17T00:24:15.273Z,1007.37
2023-03-17T00:25:06.071Z,1007.44
2023-03-17T00:26:06.063Z,1007.49
2023-03-17T00:27:06.025Z,1007.46
2023-03-17T00:28:06.025Z,1007.52
2023-03-17T00:29:06.051Z,1007.54
2023-03-17T00:30:05.993Z,1007.57
2023-03-17T00:31:06.020Z,1007.64
2023-03-17T00:32:05.993Z,1007.61
2023-03-17T00:33:06.013Z,1007.69
2023-03-17T00:34:06.055Z,1007.71
2023-03-17T00:35:06.004Z,1007.73
2023-03-17T00:36:05.965Z,1007.69
2023-03-17T00:37:05.892Z,1007.81
2023-03-17T00:38:05.892Z,1007.78
2023-03-17T00:39:05.868Z,1007.81
2023-03-17T00:40:05.879Z,1007.81
2023-03-17T00:41:05.843Z,1007.86
2023-03-17T00:42:05.877Z,1007.90
2023-03-17T00:43:05.836Z,1007.92
2023-03-17T00:44:05.876Z,1007.90
2023-03-17T00:45:05.806Z,1007.91
2023-03-17T00:46:05.779Z,1007.91
2023-03-17T00:47:05.831Z,1007.93
2023-03-17T00:48:05.784Z,1007.96
2023-03-17T00:49:05.750Z,1007.91
2023-03-17T00:50:05.790Z,1007.85
2023-03-17T00:51:05.697Z,1007.83
2023-03-17T00:52:05.733Z,1007.85
2023-03-17T00:53:05.675Z,1007.79
2023-03-17T00:54:05.686Z,1007.78
2023-03-17T00:55:05.788Z,1007.77
2023-03-17T00:56:05.680Z,1007.80
2023-03-17T00:57:05.634Z,1007.76
2023-03-17T00:58:05.666Z,1007.82
2023-03-17T00:59:05.627Z,1007.76
2023-03-17T01:00:05.629Z,1007.83
2023-03-17T01:01:05.724Z,1007.78
2023-03-17T01:02:05.686Z,1007.80
2023-03-17T01:03:05.579Z,1007.73
2023-03-17T01:04:05.562Z,1007.77
2023-03-17T01:05:06.881Z,1007.81
2023-03-17T01:06:05.526Z,1007.80
2023-03-17T01:07:05.527Z,1007.75
2023-03-17T01:08:05.562Z,1007.81
2023-03-17T01:09:05.474Z,1007.84
2023-03-17T01:10:05.529Z,1007.84
2023-03-17T01:11:05.549Z,1007.77
2023-03-17T01:12:05.450Z,1007.79
2023-03-17T01:13:05.448Z,1007.76
2023-03-17T01:14:05.423Z,1007.78
2023-03-17T01:15:05.448Z,1007.69
2023-03-17T01:16:05.399Z,1007.73
2023-03-17T01:17:05.392Z,1007.65
2023-03-17T01:18:05.380Z,1007.65
2023-03-17T01:19:05.356Z,1007.70
2023-03-17T01:20:05.340Z,1007.67
2023-03-17T01:21:05.307Z,1007.62
2023-03-17T01:22:05.315Z,1007.60
2023-03-17T01:23:05.280Z,1007.54
2023-03-17T01:24:05.301Z,1007.53
2023-03-17T01:25:05.318Z,1007.49
2023-03-17T01:26:05.266Z,1007.53
2023-03-17T01:27:05.248Z,1007.52
2023-03-17T01:28:05.237Z,1007.54
2023-03-17T01:29:05.230Z,1007.46
2023-03-17T01:30:05.232Z,1007.42
2023-03-17T01:31:05.212Z,1007.48
2023-03-17T01:32:05.206Z,1007.45
2023-03-17T01:33:05.201Z,1007.42
2023-03-17T01:34:05.190Z,1007.32
2023-03-17T01:35:05.141Z,1007.35
2023-03-17T01:36:05.162Z,1007.31
2023-03-17T01:37:05.129Z,1007.32
2023-03-17T01:38:05.104Z,1007.31
2023-03-17T01:39:05.102Z,1007.26
2023-03-17T01:40:05.079Z,1007.18
2023-03-17T01:41:05.071Z,1007.09
2023-03-17T01:42:05.028Z,1007.05
2023-03-17T01:43:05.040Z,1007.01
2023-03-17T01:44:05.019Z,1007.07
2023-03-17T01:45:05.046Z,1006.94
2023-03-17T01:46:05.091Z,1006.95
2023-03-17T01:47:05.025Z,1006.96
2023-03-17T01:48:04.959Z,1006.96
2023-03-17T01:49:04.989Z,1006.90
2023-03-17T01:50:04.958Z,1006.87
2023-03-17T01:51:04.929Z,1006.87
2023-03-17T01:52:04.931Z,1006.84
2023-03-17T01:53:04.933Z,1006.87
2023-03-17T01:54:04.882Z,1006.86
2023-03-17T01:55:04.952Z,1006.89
2023-03-17T01:56:04.859Z,1006.90
2023-03-17T01:57:04.928Z,1006.92
2023-03-17T01:58:04.836Z,1006.98
2023-03-17T01:59:04.852Z,1006.93
2023-03-17T02:00:04.857Z,1006.91
2023-03-17T02:01:04.899Z,1006.87
2023-03-17T02:02:04.807Z,1006.88
2023-03-17T02:03:04.811Z,1006.81
2023-03-17T02:04:04.862Z,1006.82
2023-03-17T02:05:04.751Z,1006.82
2023-03-17T02:06:04.750Z,1006.81
2023-03-17T02:07:04.724Z,1006.84
2023-03-17T02:08:04.730Z,1006.83
2023-03-17T02:09:04.736Z,1006.84
2023-03-17T02:10:04.730Z,1006.78
2023-03-17T02:11:04.682Z,1006.80
2023-03-17T02:12:04.668Z,1006.73
2023-03-17T02:13:04.672Z,1006.71
2023-03-17T02:14:04.611Z,1006.63
2023-03-17T02:15:04.640Z,1006.67
2023-03-17T02:16:04.617Z,1006.67
2023-03-17T02:17:04.607Z,1006.66
2023-03-17T02:18:04.571Z,1006.62
2023-03-17T02:19:04.558Z,1006.56
2023-03-17T02:20:04.586Z,1006.50
2023-03-17T02:21:04.550Z,1006.54
2023-03-17T02:22:04.536Z,1006.50
2023-03-17T02:23:04.510Z,1006.52
2023-03-17T02:24:04.518Z,1006.41
2023-03-17T02:25:04.555Z,1006.51
2023-03-17T02:26:04.465Z,1006.51
2023-03-17T02:27:04.467Z,1006.48
2023-03-17T02:28:04.455Z,1006.50
2023-03-17T02:29:04.464Z,1006.50
2023-03-17T02:30:04.436Z,1006.55
2023-03-17T02:31:04.498Z,1006.51
2023-03-17T02:32:04.410Z,1006.53
2023-03-17T02:33:04.443Z,1006.53
2023-03-17T02:34:04.362Z,1006.50
2023-03-17T02:35:04.360Z,1006.46
2023-03-17T02:36:04.423Z,1006.47
2023-03-17T02:37:04.344Z,1006.55
2023-03-17T02:38:04.298Z,1006.53
2023-03-17T02:39:04.354Z,1006.56
2023-03-17T02:40:04.307Z,1006.64
2023-03-17T02:41:04.310Z,1006.60
2023-03-17T02:42:04.277Z,1006.67
2023-03-17T02:43:04.279Z,1006.68
2023-03-17T02:44:04.292Z,1006.71
2023-03-17T02:45:04.225Z,1006.76
2023-03-17T02:46:04.325Z,1006.70
2023-03-17T02:47:04.300Z,1006.76
2023-03-17T02:48:04.170Z,1006.78
2023-03-17T02:49:04.233Z,1006.84
2023-03-17T02:50:04.150Z,1006.77
2023-03-17T02:51:04.187Z,1006.84
2023-03-17T02:52:04.156Z,1006.78
2023-03-17T02:53:04.150Z,1006.80
2023-03-17T02:54:04.131Z,1006.78
2023-03-17T02:55:04.089Z,1006.80
2023-03-17T02:56:04.122Z,1006.76
2023-03-17T02:57:04.132Z,1006.68
2023-03-17T02:58:04.052Z,1006.64
2023-03-17T02:59:04.049Z,1006.70
2023-03-17T03:00:04.045Z,1006.68
2023-03-17T03:01:04.136Z,1006.65
2023-03-17T03:02:04.017Z,1006.65
2023-03-17T03:03:04.015Z,1006.61
2023-03-17T03:04:04.019Z,1006.66
2023-03-17T03:05:03.995Z,1006.65
2023-03-17T03:06:03.967Z,1006.73
2023-03-17T03:07:03.950Z,1006.74
2023-03-17T03:08:03.941Z,1006.72
2023-03-17T03:09:03.922Z,1006.74
2023-03-17T03:10:03.917Z,1006.80
2023-03-17T03:11:03.927Z,1006.87
2023-03-17T03:12:03.916Z,1006.88
2023-03-17T03:13:03.860Z,1006.89
2023-03-17T03:14:03.877Z,1006.89
2023-03-17T03:15:03.847Z,1006.92
2023-03-17T03:16:03.877Z,1006.93
2023-03-17T03:17:03.835Z,1006.94
2023-03-17T03:18:03.812Z,1006.91
2023-03-17T03:19:03.812Z,1006.90
2023-03-17T03:20:03.791Z,1006.91
2023-03-17T03:21:03.792Z,1006.80
2023-03-17T03:22:03.749Z,1006.78
2023-03-17T03:23:03.754Z,1006.62
2023-03-17T03:24:03.750Z,1006.78
2023-03-17T03:25:03.709Z,1006.72
2023-03-17T03:26:03.698Z,1006.65
2023-03-17T03:27:03.740Z,1006.55
2023-03-17T03:28:03.691Z,1006.64
2023-03-17T03:29:03.666Z,1006.59
2023-03-17T03:30:03.650Z,1006.57
2023-03-17T03:31:03.737Z,1006.58
2023-03-17T03:32:03.651Z,1006.68
2023-03-17T03:33:03.613Z,1006.50
2023-03-17T03:34:03.620Z,1006.57
2023-03-17T03:35:03.609Z,1006.57
2023-03-17T03:36:03.579Z,1006.54
2023-03-17T03:37:03.620Z,1006.53
2023-03-17T03:38:03.557Z,1006.43
2023-03-17T03:39:03.547Z,1006.53
2023-03-17T03:40:03.501Z,1006.44
2023-03-17T03:41:03.522Z,1006.53
2023-03-17T03:42:03.482Z,1006.53
2023-03-17T03:43:12.994Z,1006.56
2023-03-17T03:44:04.482Z,1006.51
2023-03-17T03:45:03.461Z,1006.47
2023-03-17T03:46:03.512Z,1006.49
2023-03-17T03:47:03.475Z,1006.46
2023-03-17T03:48:03.378Z,1006.42
2023-03-17T03:49:03.392Z,1006.24
2023-03-17T03:50:03.377Z,1006.33
2023-03-17T03:51:03.389Z,1006.30
2023-03-17T03:52:03.363Z,1006.42
2023-03-17T03:53:03.357Z,1006.47
2023-03-17T03:54:03.304Z,1006.46
2023-03-17T03:55:03.295Z,1006.48
2023-03-17T03:56:03.278Z,1006.58
2023-03-17T03:57:03.341Z,1006.60
2023-03-17T03:58:03.254Z,1006.62
2023-03-17T03:59:03.273Z,1006.66
2023-03-17T04:00:03.302Z,1006.73
2023-03-17T04:01:03.273Z,1006.72
2023-03-17T04:02:03.227Z,1006.72
2023-03-17T04:03:03.271Z,1006.74
2023-03-17T04:04:03.206Z,1006.74
2023-03-17T04:05:03.210Z,1006.67
2023-03-17T04:06:03.172Z,1006.72
2023-03-17T04:07:03.152Z,1006.70
2023-03-17T04:08:03.142Z,1006.68
2023-03-17T04:09:03.186Z,1006.71
2023-03-17T04:10:03.103Z,1006.68
2023-03-17T04:11:03.127Z,1006.67
2023-03-17T04:12:03.090Z,1006.70
2023-03-17T04:13:03.070Z,1006.71
2023-03-17T04:14:03.060Z,1006.63
2023-03-17T04:15:03.069Z,1006.63
2023-03-17T04:16:03.067Z,1006.63
2023-03-17T04:17:03.018Z,1006.68
2023-03-17T04:18:02.991Z,1006.63
2023-03-17T04:19:03.093Z,1006.71
2023-03-17T04:20:02.986Z,1006.65
2023-03-17T04:21:03.023Z,1006.62
2023-03-17T04:22:02.961Z,1006.59
2023-03-17T04:23:02.945Z,1006.62
2023-03-17T04:24:02.912Z,1006.59
2023-03-17T04:25:02.938Z,1006.64
2023-03-17T04:26:02.883Z,1006.67
2023-03-17T04:27:05.492Z,1006.71
2023-03-17T04:28:02.849Z,1006.68
2023-03-17T04:29:02.894Z,1006.63
2023-03-17T04:30:02.827Z,1006.62
2023-03-17T04:31:02.831Z,1006.68
2023-03-17T04:32:02.845Z,1006.66
2023-03-17T04:33:02.974Z,1006.58
2023-03-17T04:34:02.812Z,1006.65
2023-03-17T04:35:02.824Z,1006.67
2023-03-17T04:36:02.771Z,1006.68
2023-03-17T04:37:02.749Z,1006.73
2023-03-17T04:38:02.732Z,1006.74
2023-03-17T04:39:02.774Z,1006.75
2023-03-17T04:40:02.711Z,1006.82
2023-03-17T04:41:02.737Z,1006.75
2023-03-17T04:42:02.674Z,1006.79
2023-03-17T04:43:03.611Z,1006.71
2023-03-17T04:44:02.673Z,1006.71
2023-03-17T04:45:02.693Z,1006.68
2023-03-17T04:46:02.714Z,1006.58
2023-03-17T04:47:02.656Z,1006.55
2023-03-17T04:48:02.629Z,1006.49
2023-03-17T04:49:02.635Z,1006.53
2023-03-17T04:50:02.577Z,1006.55
2023-03-17T04:51:02.589Z,1006.56
2023-03-17T04:52:02.549Z,1006.54
2023-03-17T04:53:02.537Z,1006.59
2023-03-17T04:54:02.545Z,1006.61
2023-03-17T04:55:02.516Z,1006.56
2023-03-17T04:56:02.488Z,1006.59
2023-03-17T04:57:02.551Z,1006.52
2023-03-17T04:58:02.492Z,1006.47
2023-03-17T04:59:02.522Z,1006.50
2023-03-17T05:00:02.455Z,1006.41
2023-03-17T05:01:02.529Z,1006.42
2023-03-17T05:02:02.478Z,1006.43
2023-03-17T05:03:02.417Z,1006.45
2023-03-17T05:04:02.448Z,1006.62
2023-03-17T05:05:02.414Z,1006.53
2023-03-17T05:06:02.405Z,1006.64
2023-03-17T05:07:02.353Z,1006.62
2023-03-17T05:08:02.345Z,1006.61
2023-03-17T05:09:02.352Z,1006.55
2023-03-17T05:10:02.334Z,1006.58
2023-03-17T05:11:02.327Z,1006.59
2023-03-17T05:12:02.299Z,1006.57
2023-03-17T05:13:02.307Z,1006.51
2023-03-17T05:14:02.312Z,1006.54
2023-03-17T05:15:02.276Z,1006.60
2023-03-17T05:16:02.231Z,1006.53
2023-03-17T05:17:02.224Z,1006.50
2023-03-17T05:18:04.876Z,1006.46
2023-03-17T05:19:02.270Z,1006.50
2023-03-17T05:20:02.177Z,1006.51
2023-03-17T05:21:02.171Z,1006.52
2023-03-17T05:22:02.168Z,1006.44
2023-03-17T05:23:02.185Z,1006.49
2023-03-17T05:24:02.159Z,1006.48
2023-03-17T05:25:02.143Z,1006.46
2023-03-17T05:26:02.092Z,1006.55
2023-03-17T05:27:02.112Z,1006.50
2023-03-17T05:28:02.084Z,1006.53
2023-03-17T05:29:02.092Z,1006.54
2023-03-17T05:30:02.056Z,1006.54
2023-03-17T05:31:02.090Z,1006.57
2023-03-17T05:32:02.037Z,1006.43
2023-03-17T05:33:02.087Z,1006.50
2023-03-17T05:34:02.041Z,1006.47
2023-03-17T05:35:02.039Z,1006.55
2023-03-17T05:36:01.983Z,1006.52
2023-03-17T05:37:02.004Z,1006.60
2023-03-17T05:38:01.983Z,1006.63
2023-03-17T05:39:01.964Z,1006.67
2023-03-17T05:40:01.936Z,1006.67
2023-03-17T05:41:01.897Z,1006.65
2023-03-17T05:42:01.921Z,1006.60
2023-03-17T05:43:01.898Z,1006.56
2023-03-17T05:44:01.886Z,1006.51
2023-03-17T05:45:01.854Z,1006.55
2023-03-17T05:46:01.903Z,1006.47
2023-03-17T05:47:01.843Z,1006.48
2023-03-17T05:48:01.813Z,1006.46
2023-03-17T05:49:01.814Z,1006.43
2023-03-17T05:50:01.805Z,1006.47
2023-03-17T05:51:01.826Z,1006.46
2023-03-17T05:52:01.789Z,1006.42
2023-03-17T05:53:01.764Z,1006.49
2023-03-17T05:54:01.744Z,1006.42
2023-03-17T05:55:01.778Z,1006.44
2023-03-17T05:56:01.748Z,1006.44
2023-03-17T05:57:01.686Z,1006.43
2023-03-17T05:58:01.686Z,1006.55
2023-03-17T05:59:01.676Z,1006.57
2023-03-17T06:00:01.659Z,1006.52
2023-03-17T06:01:01.686Z,1006.61
2023-03-17T06:02:01.717Z,1006.58
2023-03-17T06:03:01.632Z,1006.62
2023-03-17T06:04:01.641Z,1006.60
2023-03-17T06:05:01.613Z,1006.52
2023-03-17T06:06:01.607Z,1006.54
2023-03-17T06:07:01.613Z,1006.55
2023-03-17T06:08:01.580Z,1006.48
2023-03-17T06:09:01.578Z,1006.49
2023-03-17T06:10:01.566Z,1006.51
2023-03-17T06:11:01.505Z,1006.48
2023-03-17T06:12:01.517Z,1006.45
2023-03-17T06:13:03.766Z,1006.47
2023-03-17T06:14:01.509Z,1006.47
2023-03-17T06:15:01.451Z,1006.46
2023-03-17T06:16:01.563Z,1006.48
2023-03-17T06:17:01.422Z,1006.43
2023-03-17T06:18:01.422Z,1006.47
2023-03-17T06:19:01.428Z,1006.51
2023-03-17T06:20:01.441Z,1006.52
2023-03-17T06:21:01.408Z,1006.49
2023-03-17T06:22:01.405Z,1006.47
2023-03-17T06:23:04.753Z,1006.47
2023-03-17T06:24:01.438Z,1006.50
2023-03-17T06:25:10.201Z,1006.51
2023-03-17T06:26:01.318Z,1006.48
2023-03-17T06:27:03.124Z,1006.54
2023-03-17T06:28:01.288Z,1006.55
2023-03-17T06:29:01.334Z,1006.44
2023-03-17T06:30:01.301Z,1006.46
2023-03-17T06:31:01.319Z,1006.50
2023-03-17T06:32:17.094Z,1006.47
2023-03-17T06:33:02.373Z,1006.53
2023-03-17T06:34:01.205Z,1006.58
2023-03-17T06:35:01.229Z,1006.50
2023-03-17T06:36:01.264Z,1006.49
2023-03-17T06:37:01.195Z,1006.50
2023-03-17T06:38:01.172Z,1006.45
2023-03-17T06:39:01.161Z,1006.41
2023-03-17T06:40:01.206Z,1006.38
2023-03-17T06:41:01.160Z,1006.40
2023-03-17T06:42:01.112Z,1006.47
2023-03-17T06:43:01.163Z,1006.41
2023-03-17T06:44:01.085Z,1006.42
2023-03-17T06:45:01.129Z,1006.36
2023-03-17T06:46:01.072Z,1006.40
2023-03-17T06:47:01.057Z,1006.35
2023-03-17T06:48:01.035Z,1006.36
2023-03-17T06:49:01.039Z,1006.39
2023-03-17T06:50:01.013Z,1006.38
2023-03-17T06:51:01.021Z,1006.40
2023-03-17T06:52:01.012Z,1006.42
2023-03-17T06:53:00.990Z,1006.44
2023-03-17T06:54:00.972Z,1006.46
2023-03-17T06:55:00.964Z,1006.44
2023-03-17T06:56:00.957Z,1006.41
2023-03-17T06:57:00.989Z,1006.40
2023-03-17T06:58:00.915Z,1006.45
2023-03-17T06:59:00.874Z,1006.37
2023-03-17T07:00:00.907Z,1006.40
2023-03-17T07:01:00.900Z,1006.41
2023-03-17T07:02:00.901Z,1006.43
2023-03-17T07:03:00.861Z,1006.43
2023-03-17T07:04:00.857Z,1006.46
2023-03-17T07:05:00.905Z,1006.43
2023-03-17T07:06:00.818Z,1006.51
2023-03-17T07:07:00.796Z,1006.51
2023-03-17T07:08:00.767Z,1006.51
2023-03-17T07:09:02.253Z,1006.50
2023-03-17T07:10:00.767Z,1006.49
2023-03-17T07:11:00.857Z,1006.43
2023-03-17T07:12:00.771Z,1006.51
2023-03-17T07:13:00.688Z,1006.50
2023-03-17T07:14:00.721Z,1006.47
2023-03-17T07:15:00.693Z,1006.49
2023-03-17T07:16:00.942Z,1006.46
2023-03-17T07:17:00.656Z,1006.50
2023-03-17T07:18:00.664Z,1006.50
2023-03-17T07:19:00.668Z,1006.53
2023-03-17T07:20:00.640Z,1006.49
2023-03-17T07:21:00.657Z,1006.51
2023-03-17T07:22:00.635Z,1006.47
2023-03-17T07:23:00.599Z,1006.52
2023-03-17T07:24:00.605Z,1006.45
2023-03-17T07:25:00.612Z,1006.47
2023-03-17T07:26:00.549Z,1006.44
2023-03-17T07:27:00.606Z,1006.47
2023-03-17T07:28:00.507Z,1006.42
2023-03-17T07:29:00.489Z,1006.46
2023-03-17T07:30:00.482Z,1006.38
2023-03-17T07:31:00.527Z,1006.40
2023-03-17T07:32:00.507Z,1006.37
2023-03-17T07:33:00.550Z,1006.35
2023-03-17T07:34:00.470Z,1006.32
2023-03-17T07:35:00.449Z,1006.31
2023-03-17T07:36:00.449Z,1006.30
2023-03-17T07:37:00.472Z,1006.28
2023-03-17T07:38:00.377Z,1006.25
2023-03-17T07:39:00.373Z,1006.33
2023-03-17T07:40:00.381Z,1006.29
2023-03-17T07:41:00.324Z,1006.38
2023-03-17T07:42:00.340Z,1006.35
2023-03-17T07:43:00.317Z,1006.36
2023-03-17T07:44:00.347Z,1006.30
2023-03-17T07:45:00.317Z,1006.39
2023-03-17T07:46:00.311Z,1006.34
2023-03-17T07:47:00.295Z,1006.37
2023-03-17T07:48:00.246Z,1006.39
2023-03-17T07:49:00.215Z,1006.36
2023-03-17T07:50:00.223Z,1006.33
2023-03-17T07:51:00.279Z,1006.31
2023-03-17T07:52:00.276Z,1006.37
2023-03-17T07:53:00.160Z,1006.38
2023-03-17T07:54:00.166Z,1006.38
2023-03-17T07:55:00.179Z,1006.43
2023-03-17T07:56:00.168Z,1006.39
2023-03-17T07:57:00.180Z,1006.35
2023-03-17T07:58:00.268Z,1006.43
2023-03-17T07:59:00.125Z,1006.39
2023-03-17T08:00:00.086Z,1006.29
2023-03-17T08:01:00.151Z,1006.30
2023-03-17T08:02:00.234Z,1006.36
2023-03-17T08:03:09.745Z,1006.33
2023-03-17T08:04:01.113Z,1006.34
2023-03-17T08:05:00.094Z,1006.32
2023-03-17T08:06:00.172Z,1006.38
2023-03-17T08:07:00.043Z,1006.35
2023-03-17T08:08:00.005Z,1006.32
2023-03-17T08:09:00.027Z,1006.34
2023-03-17T08:09:59.949Z,1006.35
2023-03-17T08:10:59.950Z,1006.35
2023-03-17T08:11:59.980Z,1006.31
2023-03-17T08:12:59.964Z,1006.36
2023-03-17T08:13:59.950Z,1006.36
2023-03-17T08:14:59.884Z,1006.34
2023-03-17T08:15:59.894Z,1006.40
2023-03-17T08:16:59.985Z,1006.38
2023-03-17T08:17:59.884Z,1006.40
2023-03-17T08:18:59.873Z,1006.35
2023-03-17T08:19:59.832Z,1006.35
2023-03-17T08:20:59.810Z,1006.50
2023-03-17T08:21:59.818Z,1006.39
2023-03-17T08:23:00.518Z,1006.36
2023-03-17T08:23:59.846Z,1006.39
2023-03-17T08:24:59.979Z,1006.41
2023-03-17T08:25:59.821Z,1006.43
2023-03-17T08:27:00.930Z,1006.35
2023-03-17T08:27:59.734Z,1006.43
2023-03-17T08:28:59.741Z,1006.45
2023-03-17T08:29:59.698Z,1006.40
2023-03-17T08:30:59.705Z,1006.51
2023-03-17T08:31:59.720Z,1006.52
2023-03-17T08:32:59.724Z,1006.57
2023-03-17T08:33:59.672Z,1006.60
2023-03-17T08:34:59.648Z,1006.49
2023-03-17T08:35:59.692Z,1006.54
2023-03-17T08:36:59.631Z,1006.51
2023-03-17T08:37:59.667Z,1006.50
2023-03-17T08:38:59.592Z,1006.42
2023-03-17T08:39:59.585Z,1006.45
2023-03-17T08:40:59.576Z,1006.42
2023-03-17T08:42:02.297Z,1006.42
2023-03-17T08:42:59.557Z,1006.40
2023-03-17T08:43:59.839Z,1006.42
2023-03-17T08:44:59.544Z,1006.43
2023-03-17T08:45:59.578Z,1006.42
2023-03-17T08:46:59.503Z,1006.43
2023-03-17T08:47:59.462Z,1006.29
2023-03-17T08:48:59.476Z,1006.36
2023-03-17T08:49:59.449Z,1006.38
2023-03-17T08:50:59.493Z,1006.36
2023-03-17T08:51:59.468Z,1006.32
2023-03-17T08:52:59.412Z,1006.28
2023-03-17T08:53:59.446Z,1006.26
2023-03-17T08:54:59.410Z,1006.26
2023-03-17T08:55:59.398Z,1006.21
2023-03-17T08:56:59.377Z,1006.18
2023-03-17T08:57:59.367Z,1006.13
2023-03-17T08:58:59.352Z,1006.17
2023-03-17T08:59:59.356Z,1006.07
2023-03-17T09:00:59.313Z,1006.13
2023-03-17T09:01:59.356Z,1006.10
2023-03-17T09:02:59.349Z,1006.11
2023-03-17T09:03:59.292Z,1006.09
2023-03-17T09:04:59.250Z,1006.10
2023-03-17T09:05:59.282Z,1006.16
2023-03-17T09:07:03.602Z,1006.16
2023-03-17T09:08:00.307Z,1006.20
2023-03-17T09:08:59.198Z,1006.27
2023-03-17T09:09:59.348Z,1006.24
2023-03-17T09:10:59.188Z,1006.29
2023-03-17T09:11:59.176Z,1006.24
2023-03-17T09:12:59.131Z,1006.26
2023-03-17T09:13:59.161Z,1006.26
2023-03-17T09:14:59.108Z,1006.31
2023-03-17T09:15:59.144Z,1006.34
2023-03-17T09:16:59.105Z,1006.38
2023-03-17T09:17:59.117Z,1006.47
2023-03-17T09:18:59.048Z,1006.43
2023-03-17T09:19:59.127Z,1006.39
2023-03-17T09:20:59.053Z,1006.40
2023-03-17T09:21:59.045Z,1006.40
2023-03-17T09:22:58.996Z,1006.40
2023-03-17T09:24:02.141Z,1006.42
2023-03-17T09:24:59.024Z,1006.46
2023-03-17T09:25:59.028Z,1006.46
2023-03-17T09:26:58.945Z,1006.40
2023-03-17T09:27:58.975Z,1006.43
2023-03-17T09:28:58.949Z,1006.40
2023-03-17T09:29:58.914Z,1006.40
2023-03-17T09:30:58.942Z,1006.36
2023-03-17T09:31:58.905Z,1006.34
2023-03-17T09:32:58.906Z,1006.32
2023-03-17T09:33:58.913Z,1006.20
2023-03-17T09:34:58.881Z,1006.27
2023-03-17T09:35:58.876Z,1006.25
2023-03-17T09:36:58.813Z,1006.26
2023-03-17T09:37:58.840Z,1006.15
2023-03-17T09:38:58.843Z,1006.18
2023-03-17T09:39:58.793Z,1006.17
2023-03-17T09:40:58.802Z,1006.18
2023-03-17T09:41:58.753Z,1006.13
2023-03-17T09:42:58.731Z,1006.13
2023-03-17T09:43:58.723Z,1006.05
2023-03-17T09:44:58.750Z,1006.08
2023-03-17T09:45:58.721Z,1006.08
2023-03-17T09:46:58.710Z,1006.02
2023-03-17T09:47:58.708Z,1006.08
2023-03-17T09:48:58.654Z,1006.16
2023-03-17T09:49:58.670Z,1006.07
2023-03-17T09:50:58.642Z,1006.11
2023-03-17T09:51:58.647Z,1006.11
2023-03-17T09:52:58.634Z,1006.13
2023-03-17T09:53:58.604Z,1006.14
2023-03-17T09:54:58.647Z,1006.19
2023-03-17T09:55:58.585Z,1006.13
2023-03-17T09:56:58.587Z,1006.18
2023-03-17T09:57:58.566Z,1006.21
2023-03-17T09:58:58.558Z,1006.25
2023-03-17T09:59:58.579Z,1006.27
2023-03-17T10:00:58.536Z,1006.27
2023-03-17T10:01:58.580Z,1006.26
2023-03-17T10:02:58.476Z,1006.21
2023-03-17T10:03:58.488Z,1006.19
2023-03-17T10:04:58.511Z,1006.10
2023-03-17T10:05:58.427Z,1006.06
2023-03-17T10:06:58.426Z,1006.05
2023-03-17T10:07:58.403Z,1006.03
2023-03-17T10:08:58.417Z,1006.07
2023-03-17T10:09:58.427Z,1006.08
2023-03-17T10:10:58.391Z,1006.07
2023-03-17T10:11:58.381Z,1006.03
2023-03-17T10:12:58.345Z,1006.05
2023-03-17T10:13:58.339Z,1006.08
2023-03-17T10:14:58.368Z,1006.06
2023-03-17T10:15:58.347Z,1006.09
2023-03-17T10:16:58.314Z,1006.12
2023-03-17T10:17:58.292Z,1006.17
2023-03-17T10:18:58.303Z,1006.10
2023-03-17T10:19:58.243Z,1006.16
2023-03-17T10:20:58.263Z,1006.17
2023-03-17T10:21:58.252Z,1006.13
2023-03-17T10:22:58.249Z,1006.12
2023-03-17T10:23:58.231Z,1006.14
2023-03-17T10:24:58.277Z,1006.14
2023-03-17T10:25:58.164Z,1006.15
2023-03-17T10:26:58.167Z,1006.11
2023-03-17T10:27:58.143Z,1006.08
2023-03-17T10:28:58.161Z,1006.11
2023-03-17T10:29:58.142Z,1006.09
2023-03-17T10:30:58.144Z,1006.07
2023-03-17T10:31:58.745Z,1006.12
2023-03-17T10:32:58.143Z,1006.10
2023-03-17T10:33:58.089Z,1006.14
2023-03-17T10:34:58.077Z,1006.20
2023-03-17T10:35:58.100Z,1006.14
2023-03-17T10:36:58.134Z,1006.21
2023-03-17T10:38:13.613Z,1006.12
2023-03-17T10:38:59.025Z,1006.13
2023-03-17T10:39:57.982Z,1006.06
2023-03-17T10:40:58.050Z,1006.03
2023-03-17T10:41:58.007Z,1005.95
2023-03-17T10:42:57.999Z,1005.97
2023-03-17T10:43:57.943Z,1005.89
2023-03-17T10:44:57.965Z,1005.86
2023-03-17T10:45:57.969Z,1005.87
2023-03-17T10:46:57.964Z,1005.85
2023-03-17T10:47:57.900Z,1005.93
2023-03-17T10:48:57.919Z,1005.91
2023-03-17T10:49:57.857Z,1005.91
2023-03-17T10:50:57.911Z,1005.83
2023-03-17T10:51:57.868Z,1005.86
2023-03-17T10:52:57.875Z,1005.75
2023-03-17T10:53:57.819Z,1005.76
2023-03-17T10:54:57.809Z,1005.80
2023-03-17T10:55:57.831Z,1005.78
2023-03-17T10:56:59.186Z,1005.77
2023-03-17T10:57:57.755Z,1005.73
2023-03-17T10:58:57.780Z,1005.71
2023-03-17T10:59:57.725Z,1005.68
2023-03-17T11:00:57.814Z,1005.63
2023-03-17T11:01:57.703Z,1005.61
2023-03-17T11:02:57.692Z,1005.61
2023-03-17T11:03:57.773Z,1005.62
2023-03-17T11:04:57.669Z,1005.64
2023-03-17T11:05:57.659Z,1005.70
2023-03-17T11:06:57.668Z,1005.69
2023-03-17T11:07:57.647Z,1005.67
2023-03-17T11:08:57.620Z,1005.72
2023-03-17T11:09:57.637Z,1005.63
2023-03-17T11:10:57.637Z,1005.61
2023-03-17T11:11:57.569Z,1005.63
2023-03-17T11:12:57.572Z,1005.66
2023-03-17T11:13:57.568Z,1005.65
2023-03-17T11:14:57.567Z,1005.70
2023-03-17T11:15:57.592Z,1005.74
2023-03-17T11:16:57.550Z,1005.71
2023-03-17T11:17:57.497Z,1005.74
2023-03-17T11:18:57.505Z,1005.72
2023-03-17T11:19:57.473Z,1005.73
2023-03-17T11:20:57.483Z,1005.66
2023-03-17T11:21:57.465Z,1005.68
2023-03-17T11:22:57.451Z,1005.67
2023-03-17T11:23:57.413Z,1005.73
2023-03-17T11:24:57.438Z,1005.69
2023-03-17T11:25:57.437Z,1005.62
2023-03-17T11:26:57.410Z,1005.65
2023-03-17T11:27:57.386Z,1005.60
2023-03-17T11:28:57.360Z,1005.64
2023-03-17T11:29:57.344Z,1005.55
2023-03-17T11:30:57.386Z,1005.52
2023-03-17T11:31:57.430Z,1005.50
2023-03-17T11:32:57.339Z,1005.48
2023-03-17T11:33:57.318Z,1005.49
2023-03-17T11:34:57.320Z,1005.46
2023-03-17T11:35:57.314Z,1005.50
2023-03-17T11:36:59.129Z,1005.48
2023-03-17T11:37:57.264Z,1005.47
2023-03-17T11:38:57.229Z,1005.56
2023-03-17T11:39:57.199Z,1005.52
2023-03-17T11:40:57.275Z,1005.49
2023-03-17T11:41:57.178Z,1005.54
2023-03-17T11:42:57.209Z,1005.50
2023-03-17T11:43:57.186Z,1005.54
2023-03-17T11:44:57.148Z,1005.46
2023-03-17T11:45:57.247Z,1005.43
2023-03-17T11:46:57.164Z,1005.36
2023-03-17T11:47:58.249Z,1005.38
2023-03-17T11:48:57.125Z,1005.32
2023-03-17T11:49:57.087Z,1005.40
2023-03-17T11:50:57.078Z,1005.32
2023-03-17T11:51:57.060Z,1005.34
2023-03-17T11:52:57.064Z,1005.25
2023-03-17T11:53:57.052Z,1005.20
2023-03-17T11:54:58.824Z,1005.21
2023-03-17T11:55:57.033Z,1005.31
2023-03-17T11:56:57.033Z,1005.29
2023-03-17T11:57:56.977Z,1005.31
2023-03-17T11:58:56.987Z,1005.29
2023-03-17T11:59:56.962Z,1005.21
2023-03-17T12:00:56.967Z,1005.22
2023-03-17T12:01:56.930Z,1005.21
2023-03-17T12:02:56.936Z,1005.21
2023-03-17T12:03:57.049Z,1005.18
2023-03-17T12:04:56.882Z,1005.14